createdAt,value
2017-09-20T18:53:30.321Z,25.30
2017-09-20T18:54:38.769Z,25.00
2017-09-20T18:55:46.317Z,23.50
2017-09-20T18:56:52.368Z,22.60
2017-09-20T18:57:58.734Z,22.00
2017-09-20T18:59:06.681Z,21.60
2017-09-20T19:00:13.680Z,21.30
2017-09-20T19:01:19.849Z,21.10
2017-09-20T19:02:26.554Z,20.90
2017-09-20T19:03:32.551Z,20.90
2017-09-20T19:04:39.360Z,20.80
2017-09-20T19:05:47.124Z,20.70
2017-09-20T19:06:54.925Z,20.70
2017-09-20T19:08:02.103Z,20.70
2017-09-20T19:09:07.799Z,20.60
2017-09-20T19:10:14.287Z,20.60
2017-09-20T19:11:23.195Z,20.60
2017-09-20T19:12:29.833Z,20.60
2017-09-20T19:13:35.985Z,20.60
2017-09-20T19:14:43.274Z,20.60
2017-09-20T19:15:56.284Z,20.60
2017-09-20T19:16:24.952Z,20.60
2017-09-20T19:17:32.074Z,20.60
2017-09-20T19:18:26.216Z,20.60
2017-09-20T19:19:02.064Z,20.60
2017-09-20T19:20:09.342Z,20.60
2017-09-20T19:21:16.810Z,20.70
2017-09-20T19:22:23.597Z,20.70
2017-09-20T19:23:31.089Z,20.70
2017-09-20T19:24:37.407Z,20.70
2017-09-20T19:26:03.754Z,20.70
2017-09-20T19:26:45.389Z,20.70
2017-09-20T19:27:52.811Z,20.80
2017-09-20T19:29:00.722Z,20.60
2017-09-20T19:30:10.037Z,20.60
2017-09-20T19:31:18.698Z,20.60
2017-09-20T19:33:31.643Z,20.60
2017-09-20T19:34:31.686Z,20.60
2017-09-20T19:35:39.945Z,20.60
2017-09-20T19:36:48.225Z,20.60
2017-09-20T19:37:50.104Z,20.60
2017-09-20T19:39:33.615Z,20.60
2017-09-20T19:42:03.047Z,20.60
2017-09-20T19:43:14.018Z,20.60
2017-09-20T19:44:30.002Z,20.60
2017-09-20T19:45:41.623Z,20.60
2017-09-20T19:46:52.338Z,20.60
2017-09-20T19:48:01.456Z,20.60
2017-09-20T19:49:08.601Z,20.60
2017-09-20T19:50:15.509Z,20.60
2017-09-20T19:51:22.592Z,20.60
2017-09-20T19:52:29.548Z,20.60
2017-09-20T19:53:36.711Z,20.70
2017-09-20T19:54:43.549Z,20.60
2017-09-20T19:55:51.347Z,20.70
2017-09-20T19:56:58.985Z,20.60
2017-09-20T19:58:06.312Z,20.60
2017-09-20T19:59:13.440Z,20.60
2017-09-20T20:00:21.866Z,20.60
2017-09-20T20:01:29.368Z,20.60
2017-09-20T20:02:36.775Z,20.70
2017-09-20T20:03:43.540Z,20.60
2017-09-20T20:04:50.238Z,20.60
2017-09-20T20:05:57.450Z,20.60
2017-09-20T20:07:04.286Z,20.60
2017-09-20T20:08:10.636Z,20.60
2017-09-20T20:09:07.220Z,20.70
2017-09-20T20:10:14.267Z,20.70
2017-09-20T20:11:21.565Z,20.70
2017-09-20T20:12:28.459Z,20.70
2017-09-20T20:13:35.575Z,20.70
2017-09-20T20:14:42.461Z,20.70
2017-09-20T20:15:49.734Z,20.70
2017-09-20T20:16:57.214Z,20.70
2017-09-20T20:18:04.121Z,20.70
2017-09-20T20:19:20.783Z,20.70
2017-09-20T20:20:27.260Z,20.60
2017-09-20T20:21:28.217Z,20.60
2017-09-20T20:22:41.775Z,20.60
2017-09-20T20:23:48.477Z,20.60
2017-09-20T20:24:46.498Z,20.60
2017-09-20T20:25:52.614Z,20.60
2017-09-20T20:27:00.706Z,20.60
2017-09-20T20:28:12.839Z,20.60
2017-09-20T20:29:18.723Z,20.60
2017-09-20T20:30:25.278Z,20.60
2017-09-20T20:31:31.420Z,20.60
2017-09-20T20:32:37.547Z,20.60
2017-09-20T20:33:44.907Z,20.60
2017-09-20T20:34:52.861Z,20.60
2017-09-20T20:36:01.136Z,20.60
2017-09-20T20:36:54.673Z,20.60
2017-09-20T20:38:02.402Z,20.60
2017-09-20T20:38:41.703Z,20.60
2017-09-20T20:39:49.420Z,20.60
2017-09-20T20:40:34.756Z,20.60
2017-09-20T20:41:21.311Z,20.60
2017-09-20T20:42:28.928Z,20.60
2017-09-20T20:44:01.914Z,20.60
2017-09-20T21:02:11.571Z,26.90
2017-09-20T21:03:19.239Z,26.80
2017-09-20T21:04:27.056Z,25.80
2017-09-20T21:05:35.255Z,25.10
2017-09-20T21:06:44.043Z,24.70
2017-09-20T21:07:52.651Z,24.50
2017-09-20T21:09:00.462Z,24.40
2017-09-20T21:10:11.840Z,24.40
2017-09-20T21:11:21.322Z,24.40
2017-09-20T21:13:34.699Z,24.50
2017-09-20T21:14:42.437Z,24.40
2017-09-20T21:15:49.739Z,24.50
2017-09-20T21:16:56.297Z,24.50
2017-09-20T21:18:02.151Z,24.50
2017-09-20T21:19:07.935Z,24.50
2017-09-20T21:20:13.717Z,24.50
2017-09-20T21:21:19.637Z,24.40
2017-09-20T21:22:27.924Z,24.40
2017-09-20T21:23:35.123Z,24.40
2017-09-20T21:24:41.328Z,24.40
2017-09-20T21:25:48.162Z,24.30
2017-09-20T21:26:54.531Z,24.30
2017-09-20T21:28:00.906Z,24.30
2017-09-20T21:29:07.057Z,24.30
2017-09-20T21:30:13.217Z,24.30
2017-09-20T21:31:19.293Z,24.30
2017-09-20T21:32:25.090Z,24.30
2017-09-20T21:33:30.996Z,24.30
2017-09-20T21:34:36.899Z,24.30
2017-09-20T21:35:42.714Z,24.30
2017-09-20T21:36:48.640Z,24.30
2017-09-20T21:37:54.915Z,24.30
2017-09-20T21:39:00.941Z,24.30
2017-09-20T21:40:06.880Z,24.30
2017-09-20T21:41:12.622Z,24.30
2017-09-20T21:42:18.498Z,24.30
2017-09-20T21:44:29.231Z,24.30
2017-09-20T21:45:35.301Z,24.30
2017-09-20T21:46:41.250Z,24.30
2017-09-20T21:47:47.244Z,24.30
2017-09-20T21:48:53.102Z,24.30
2017-09-20T21:49:58.843Z,24.30
2017-09-20T21:51:05.529Z,24.30
2017-09-20T21:54:20.213Z,24.30
2017-09-20T21:55:26.222Z,24.30
2017-09-20T21:56:32.338Z,24.30
2017-09-20T21:57:38.442Z,24.30
2017-09-20T21:58:44.423Z,24.30
2017-09-20T21:59:50.402Z,24.30
2017-09-20T22:00:56.476Z,24.30
2017-09-20T22:02:02.368Z,24.30
2017-09-20T22:03:08.539Z,24.30
2017-09-20T22:04:14.698Z,24.20
2017-09-20T22:05:22.212Z,24.30
2017-09-20T22:06:27.919Z,24.30
2017-09-20T22:07:34.086Z,24.30
2017-09-20T22:08:40.516Z,24.30
2017-09-20T22:09:47.239Z,24.30
2017-09-20T22:10:53.419Z,24.30
2017-09-20T22:11:59.338Z,24.30
2017-09-20T22:13:05.075Z,24.30
2017-09-20T22:14:11.129Z,24.30
2017-09-20T22:15:18.470Z,24.20
2017-09-20T22:16:25.155Z,24.20
2017-09-20T22:17:31.541Z,24.20
2017-09-20T22:18:37.801Z,24.30
2017-09-20T22:19:44.056Z,24.30
2017-09-20T22:20:49.981Z,24.30
2017-09-20T22:21:56.214Z,24.30
2017-09-20T22:23:02.918Z,24.30
2017-09-20T22:24:09.022Z,24.30
2017-09-20T22:25:16.640Z,24.30
2017-09-20T22:26:23.859Z,24.30
2017-09-20T22:27:30.777Z,24.30
2017-09-20T22:28:37.312Z,24.30
2017-09-20T22:29:43.575Z,24.30
2017-09-20T22:30:49.503Z,24.30
2017-09-20T22:31:55.624Z,24.30
2017-09-20T22:33:03.341Z,24.30
2017-09-20T22:34:09.595Z,24.30
2017-09-20T22:35:15.764Z,24.30
2017-09-20T22:36:22.016Z,24.30
2017-09-20T22:37:28.289Z,24.30
2017-09-20T22:38:34.580Z,24.30
2017-09-20T22:39:40.731Z,24.30
2017-09-20T22:40:47.831Z,24.30
2017-09-20T22:41:54.135Z,24.30
2017-09-20T22:43:00.497Z,24.30
2017-09-20T22:44:07.456Z,24.30
2017-09-20T22:45:15.180Z,24.30
2017-09-20T22:46:22.610Z,24.30
2017-09-20T22:47:29.344Z,24.30
2017-09-20T22:48:36.166Z,24.20
2017-09-20T22:49:43.374Z,24.30
2017-09-20T22:50:49.944Z,24.40
2017-09-20T22:51:56.139Z,24.40
2017-09-20T22:53:03.078Z,24.40
2017-09-20T22:54:09.209Z,24.30
2017-09-20T22:55:15.249Z,24.30
2017-09-20T22:56:21.347Z,24.30
2017-09-20T22:57:27.506Z,24.30
2017-09-20T22:58:33.649Z,24.30
2017-09-20T22:59:39.854Z,24.20
2017-09-20T23:00:46.315Z,24.20
2017-09-20T23:01:52.593Z,24.20
2017-09-20T23:02:58.822Z,24.20
2017-09-20T23:04:04.901Z,24.20
2017-09-20T23:05:11.869Z,24.20
2017-09-20T23:06:19.245Z,24.10
2017-09-20T23:07:25.294Z,24.10
2017-09-20T23:08:31.418Z,24.10
2017-09-20T23:09:37.307Z,24.10
2017-09-20T23:10:43.390Z,24.10
2017-09-20T23:11:49.404Z,24.10
2017-09-20T23:12:55.310Z,24.10
2017-09-20T23:14:01.265Z,24.10
2017-09-20T23:15:07.399Z,24.10
2017-09-20T23:16:13.425Z,24.10
2017-09-20T23:17:19.388Z,24.10
2017-09-20T23:18:25.494Z,24.10
2017-09-20T23:19:31.691Z,24.10
2017-09-20T23:20:37.775Z,24.10
2017-09-20T23:22:47.274Z,24.10
2017-09-20T23:23:52.709Z,24.10
2017-09-20T23:24:58.080Z,24.00
2017-09-20T23:26:03.564Z,24.00
2017-09-20T23:27:09.046Z,24.00
2017-09-20T23:28:14.425Z,23.90
2017-09-20T23:29:19.921Z,23.90
2017-09-20T23:30:25.503Z,23.90
2017-09-20T23:31:31.076Z,23.90
2017-09-20T23:32:36.448Z,23.90
2017-09-20T23:33:41.890Z,23.90
2017-09-20T23:34:47.323Z,23.90
2017-09-20T23:35:52.674Z,23.80
2017-09-20T23:36:58.107Z,23.80
2017-09-20T23:38:03.585Z,23.80
2017-09-20T23:39:09.029Z,23.80
2017-09-20T23:40:14.710Z,23.80
2017-09-20T23:41:20.373Z,23.80
2017-09-20T23:42:26.059Z,23.80
2017-09-20T23:43:31.788Z,23.80
2017-09-20T23:44:37.378Z,23.80
2017-09-20T23:45:43.066Z,23.80
2017-09-20T23:46:48.730Z,23.80
2017-09-20T23:47:54.285Z,23.80
2017-09-20T23:48:59.800Z,23.80
2017-09-20T23:50:05.402Z,23.80
2017-09-20T23:51:10.831Z,23.80
2017-09-20T23:52:16.148Z,23.80
2017-09-20T23:53:21.667Z,23.80
2017-09-20T23:54:27.099Z,23.80
2017-09-20T23:55:32.585Z,23.80
2017-09-20T23:56:38.096Z,23.80
2017-09-20T23:57:43.420Z,23.80
2017-09-20T23:58:48.752Z,23.80
2017-09-20T23:59:54.188Z,23.80
